createdAt,value
2018-11-11T09:55:28.430Z,118.12
2018-11-11T09:56:28.520Z,118.12
2018-11-11T09:57:28.180Z,101.25
2018-11-11T09:58:28.247Z,101.25
2018-11-11T09:59:28.156Z,101.25
2018-11-11T10:00:28.155Z,129.38
2018-11-11T10:01:28.135Z,106.88
2018-11-11T10:04:17.594Z,90.00
2018-11-11T10:04:36.842Z,90.00
2018-11-11T10:05:36.836Z,123.75
2018-11-11T10:06:36.918Z,140.62
2018-11-11T10:07:36.804Z,106.88
2018-11-11T10:08:36.796Z,90.00
2018-11-11T10:09:36.794Z,84.38
2018-11-11T10:10:36.771Z,95.62
2018-11-11T10:11:36.764Z,95.62
2018-11-11T10:12:36.870Z,95.62
2018-11-11T10:13:36.739Z,129.38
2018-11-11T10:14:36.747Z,118.12
2018-11-11T10:15:36.723Z,78.75
2018-11-11T10:16:36.709Z,67.50
2018-11-11T10:17:36.697Z,73.12
2018-11-11T10:18:36.685Z,73.12
2018-11-11T10:19:36.689Z,73.12
2018-11-11T10:20:36.705Z,73.12
2018-11-11T10:21:36.655Z,73.12
2018-11-11T10:22:36.641Z,67.50
2018-11-11T10:23:36.631Z,73.12
2018-11-11T10:24:36.626Z,67.50
2018-11-11T10:25:36.605Z,73.12
2018-11-11T10:26:36.595Z,73.12
2018-11-11T10:27:36.585Z,73.12
2018-11-11T10:28:36.583Z,67.50
2018-11-11T10:29:36.580Z,67.50
2018-11-11T10:30:36.549Z,67.50
2018-11-11T10:31:36.543Z,67.50
2018-11-11T10:32:36.531Z,67.50
2018-11-11T10:33:36.549Z,67.50
2018-11-11T10:34:36.516Z,67.50
2018-11-11T10:35:36.496Z,67.50
2018-11-11T10:36:36.484Z,67.50
2018-11-11T10:37:36.583Z,67.50
